sensor_id;sensor_type;location;lat;lon;timestamp;temperature;humidity
22430;DHT22;11382;48.086;11.632;2022-08-04T00:00:04;18.90;99.90
22430;DHT22;11382;48.086;11.632;2022-08-04T00:02:46;18.90;99.90
22430;DHT22;11382;48.086;11.632;2022-08-04T00:05:26;18.80;99.90
22430;DHT22;11382;48.086;11.632;2022-08-04T00:08:04;18.80;99.90
22430;DHT22;11382;48.086;11.632;2022-08-04T00:10:35;18.80;99.90
22430;DHT22;11382;48.086;11.632;2022-08-04T00:13:07;18.80;99.90
22430;DHT22;11382;48.086;11.632;2022-08-04T00:15:36;18.80;99.90
22430;DHT22;11382;48.086;11.632;2022-08-04T00:18:07;18.80;99.90
22430;DHT22;11382;48.086;11.632;2022-08-04T00:20:38;18.80;99.90
22430;DHT22;11382;48.086;11.632;2022-08-04T00:23:07;18.60;99.90
22430;DHT22;11382;48.086;11.632;2022-08-04T00:25:39;18.60;99.90
22430;DHT22;11382;48.086;11.632;2022-08-04T00:28:08;18.60;99.90
22430;DHT22;11382;48.086;11.632;2022-08-04T00:30:36;18.50;99.90
22430;DHT22;11382;48.086;11.632;2022-08-04T00:33:04;18.40;99.90
22430;DHT22;11382;48.086;11.632;2022-08-04T00:35:33;18.40;99.90
22430;DHT22;11382;48.086;11.632;2022-08-04T00:38:02;18.40;99.90
22430;DHT22;11382;48.086;11.632;2022-08-04T00:40:38;18.40;99.90
22430;DHT22;11382;48.086;11.632;2022-08-04T00:43:16;18.40;99.90
22430;DHT22;11382;48.086;11.632;2022-08-04T00:46:21;18.40;99.90
22430;DHT22;11382;48.086;11.632;2022-08-04T00:49:09;18.40;99.90
22430;DHT22;11382;48.086;11.632;2022-08-04T00:51:47;18.40;99.90
22430;DHT22;11382;48.086;11.632;2022-08-04T00:54:44;18.20;99.90
22430;DHT22;11382;48.086;11.632;2022-08-04T00:57:29;18.20;99.90
22430;DHT22;11382;48.086;11.632;2022-08-04T01:00:06;18.20;99.90
22430;DHT22;11382;48.086;11.632;2022-08-04T01:02:38;18.30;99.90
22430;DHT22;11382;48.086;11.632;2022-08-04T01:05:14;18.20;99.90
22430;DHT22;11382;48.086;11.632;2022-08-04T01:08:07;18.30;99.90
22430;DHT22;11382;48.086;11.632;2022-08-04T01:10:47;18.20;99.90
22430;DHT22;11382;48.086;11.632;2022-08-04T01:13:28;18.20;99.90
22430;DHT22;11382;48.086;11.632;2022-08-04T01:16:03;18.30;99.90
22430;DHT22;11382;48.086;11.632;2022-08-04T01:18:35;18.20;99.90
22430;DHT22;11382;48.086;11.632;2022-08-04T01:24:25;18.00;99.90
22430;DHT22;11382;48.086;11.632;2022-08-04T01:27:01;17.90;99.90
22430;DHT22;11382;48.086;11.632;2022-08-04T01:29:37;17.90;99.90
22430;DHT22;11382;48.086;11.632;2022-08-04T01:32:18;17.80;99.90
22430;DHT22;11382;48.086;11.632;2022-08-04T01:34:56;17.80;99.90
22430;DHT22;11382;48.086;11.632;2022-08-04T01:37:44;17.80;99.90
22430;DHT22;11382;48.086;11.632;2022-08-04T01:40:15;17.80;99.90
22430;DHT22;11382;48.086;11.632;2022-08-04T01:42:43;17.70;99.90
22430;DHT22;11382;48.086;11.632;2022-08-04T01:45:13;17.70;99.90
22430;DHT22;11382;48.086;11.632;2022-08-04T01:47:48;17.80;99.90
22430;DHT22;11382;48.086;11.632;2022-08-04T01:50:17;17.80;99.90
22430;DHT22;11382;48.086;11.632;2022-08-04T01:52:45;17.80;99.90
22430;DHT22;11382;48.086;11.632;2022-08-04T01:55:17;17.70;99.90
22430;DHT22;11382;48.086;11.632;2022-08-04T01:57:47;17.60;99.90
22430;DHT22;11382;48.086;11.632;2022-08-04T02:00:18;17.60;99.90
22430;DHT22;11382;48.086;11.632;2022-08-04T02:02:48;17.60;99.90
22430;DHT22;11382;48.086;11.632;2022-08-04T02:05:18;17.50;99.90
22430;DHT22;11382;48.086;11.632;2022-08-04T02:07:54;17.50;99.90
22430;DHT22;11382;48.086;11.632;2022-08-04T02:10:28;17.60;99.90
22430;DHT22;11382;48.086;11.632;2022-08-04T02:13:06;17.60;99.90
22430;DHT22;11382;48.086;11.632;2022-08-04T02:15:49;17.50;99.90
22430;DHT22;11382;48.086;11.632;2022-08-04T02:18:23;17.60;99.90
22430;DHT22;11382;48.086;11.632;2022-08-04T02:20:56;17.60;99.90
22430;DHT22;11382;48.086;11.632;2022-08-04T02:23:30;17.60;99.90
22430;DHT22;11382;48.086;11.632;2022-08-04T02:26:01;17.50;99.90
22430;DHT22;11382;48.086;11.632;2022-08-04T02:28:34;17.40;99.90
22430;DHT22;11382;48.086;11.632;2022-08-04T02:31:20;17.30;99.90
22430;DHT22;11382;48.086;11.632;2022-08-04T02:33:55;17.20;99.90
22430;DHT22;11382;48.086;11.632;2022-08-04T02:36:32;17.20;99.90
22430;DHT22;11382;48.086;11.632;2022-08-04T02:39:03;17.20;99.90
22430;DHT22;11382;48.086;11.632;2022-08-04T02:41:33;17.10;99.90
22430;DHT22;11382;48.086;11.632;2022-08-04T02:44:04;17.10;99.90
22430;DHT22;11382;48.086;11.632;2022-08-04T02:46:34;17.10;99.90
22430;DHT22;11382;48.086;11.632;2022-08-04T02:49:05;17.00;99.90
22430;DHT22;11382;48.086;11.632;2022-08-04T02:51:35;17.00;99.90
22430;DHT22;11382;48.086;11.632;2022-08-04T02:54:05;16.90;99.90
22430;DHT22;11382;48.086;11.632;2022-08-04T02:56:35;16.70;99.90
22430;DHT22;11382;48.086;11.632;2022-08-04T02:59:06;16.60;99.90
22430;DHT22;11382;48.086;11.632;2022-08-04T03:01:37;16.60;99.90
22430;DHT22;11382;48.086;11.632;2022-08-04T03:04:34;16.60;99.90
22430;DHT22;11382;48.086;11.632;2022-08-04T03:07:19;16.60;99.90
22430;DHT22;11382;48.086;11.632;2022-08-04T03:13:07;16.40;99.90
22430;DHT22;11382;48.086;11.632;2022-08-04T03:16:02;16.50;99.90
22430;DHT22;11382;48.086;11.632;2022-08-04T03:22:21;16.50;99.90
22430;DHT22;11382;48.086;11.632;2022-08-04T03:25:13;16.50;99.90
22430;DHT22;11382;48.086;11.632;2022-08-04T03:28:20;16.50;99.90
22430;DHT22;11382;48.086;11.632;2022-08-04T03:31:21;16.50;99.90
22430;DHT22;11382;48.086;11.632;2022-08-04T03:34:13;16.50;99.90
22430;DHT22;11382;48.086;11.632;2022-08-04T03:40:06;16.50;99.90
22430;DHT22;11382;48.086;11.632;2022-08-04T03:43:15;16.40;99.90
22430;DHT22;11382;48.086;11.632;2022-08-04T03:46:29;16.40;99.90
22430;DHT22;11382;48.086;11.632;2022-08-04T03:49:27;16.30;99.90
22430;DHT22;11382;48.086;11.632;2022-08-04T03:52:05;16.20;99.90
22430;DHT22;11382;48.086;11.632;2022-08-04T03:55:14;16.20;99.90
22430;DHT22;11382;48.086;11.632;2022-08-04T04:01:05;16.20;99.90
22430;DHT22;11382;48.086;11.632;2022-08-04T04:03:56;16.30;99.90
22430;DHT22;11382;48.086;11.632;2022-08-04T04:06:42;16.30;99.90
22430;DHT22;11382;48.086;11.632;2022-08-04T04:09:52;16.30;99.90
22430;DHT22;11382;48.086;11.632;2022-08-04T04:13:08;16.50;99.90
22430;DHT22;11382;48.086;11.632;2022-08-04T04:15:52;16.50;99.90
22430;DHT22;11382;48.086;11.632;2022-08-04T04:18:41;16.50;99.90
22430;DHT22;11382;48.086;11.632;2022-08-04T04:21:27;16.50;99.90
22430;DHT22;11382;48.086;11.632;2022-08-04T04:24:20;16.60;99.90
22430;DHT22;11382;48.086;11.632;2022-08-04T04:27:08;16.70;99.90
22430;DHT22;11382;48.086;11.632;2022-08-04T04:29:59;16.80;99.90
22430;DHT22;11382;48.086;11.632;2022-08-04T04:32:37;16.90;99.90
22430;DHT22;11382;48.086;11.632;2022-08-04T04:35:18;17.00;99.90
22430;DHT22;11382;48.086;11.632;2022-08-04T04:37:56;17.10;99.90
22430;DHT22;11382;48.086;11.632;2022-08-04T04:40:38;17.30;99.90
22430;DHT22;11382;48.086;11.632;2022-08-04T04:43:16;17.60;99.90
22430;DHT22;11382;48.086;11.632;2022-08-04T04:46:17;17.80;99.90
22430;DHT22;11382;48.086;11.632;2022-08-04T04:48:52;18.10;99.90
22430;DHT22;11382;48.086;11.632;2022-08-04T04:51:22;18.40;99.90
22430;DHT22;11382;48.086;11.632;2022-08-04T04:54:05;18.80;99.90
22430;DHT22;11382;48.086;11.632;2022-08-04T04:56:40;19.40;99.90
22430;DHT22;11382;48.086;11.632;2022-08-04T04:59:14;20.50;99.90
22430;DHT22;11382;48.086;11.632;2022-08-04T05:01:58;21.50;99.90
22430;DHT22;11382;48.086;11.632;2022-08-04T05:07:56;23.20;99.90
22430;DHT22;11382;48.086;11.632;2022-08-04T05:11:10;23.80;99.90
22430;DHT22;11382;48.086;11.632;2022-08-04T05:13:45;24.90;99.90
22430;DHT22;11382;48.086;11.632;2022-08-04T05:16:38;25.50;99.90
22430;DHT22;11382;48.086;11.632;2022-08-04T05:19:16;26.20;99.90
22430;DHT22;11382;48.086;11.632;2022-08-04T05:21:50;26.60;99.10
22430;DHT22;11382;48.086;11.632;2022-08-04T05:24:21;27.60;98.00
22430;DHT22;11382;48.086;11.632;2022-08-04T05:26:54;28.40;96.20
22430;DHT22;11382;48.086;11.632;2022-08-04T05:29:30;29.30;94.30
22430;DHT22;11382;48.086;11.632;2022-08-04T05:32:04;29.30;92.10
22430;DHT22;11382;48.086;11.632;2022-08-04T05:34:38;30.00;91.10
22430;DHT22;11382;48.086;11.632;2022-08-04T05:37:10;30.20;90.80
22430;DHT22;11382;48.086;11.632;2022-08-04T05:39:45;30.90;90.50
22430;DHT22;11382;48.086;11.632;2022-08-04T05:42:13;31.60;86.30
22430;DHT22;11382;48.086;11.632;2022-08-04T05:44:43;32.30;82.60
22430;DHT22;11382;48.086;11.632;2022-08-04T05:47:17;32.40;80.00
22430;DHT22;11382;48.086;11.632;2022-08-04T05:49:47;32.40;77.40
22430;DHT22;11382;48.086;11.632;2022-08-04T05:52:29;32.60;78.60
22430;DHT22;11382;48.086;11.632;2022-08-04T05:54:58;32.90;74.60
22430;DHT22;11382;48.086;11.632;2022-08-04T05:57:27;33.00;73.70
22430;DHT22;11382;48.086;11.632;2022-08-04T06:00:00;32.90;72.70
22430;DHT22;11382;48.086;11.632;2022-08-04T06:02:50;33.00;73.10
22430;DHT22;11382;48.086;11.632;2022-08-04T06:05:19;33.50;72.00
22430;DHT22;11382;48.086;11.632;2022-08-04T06:07:48;34.30;71.60
22430;DHT22;11382;48.086;11.632;2022-08-04T06:10:37;35.20;68.80
22430;DHT22;11382;48.086;11.632;2022-08-04T06:13:10;35.60;65.50
22430;DHT22;11382;48.086;11.632;2022-08-04T06:16:01;35.80;64.90
22430;DHT22;11382;48.086;11.632;2022-08-04T06:18:29;36.50;62.40
22430;DHT22;11382;48.086;11.632;2022-08-04T06:21:20;37.60;60.00
22430;DHT22;11382;48.086;11.632;2022-08-04T06:23:50;37.00;59.70
22430;DHT22;11382;48.086;11.632;2022-08-04T06:26:32;36.80;59.80
22430;DHT22;11382;48.086;11.632;2022-08-04T06:29:02;37.00;59.70
22430;DHT22;11382;48.086;11.632;2022-08-04T06:31:32;37.00;59.50
22430;DHT22;11382;48.086;11.632;2022-08-04T06:34:32;37.30;60.10
22430;DHT22;11382;48.086;11.632;2022-08-04T06:37:02;38.30;57.50
22430;DHT22;11382;48.086;11.632;2022-08-04T06:39:31;38.70;56.00
22430;DHT22;11382;48.086;11.632;2022-08-04T06:42:00;39.70;56.20
22430;DHT22;11382;48.086;11.632;2022-08-04T06:44:53;39.90;54.20
22430;DHT22;11382;48.086;11.632;2022-08-04T06:47:23;40.10;53.60
22430;DHT22;11382;48.086;11.632;2022-08-04T06:49:54;40.70;51.20
22430;DHT22;11382;48.086;11.632;2022-08-04T06:52:43;41.90;49.20
22430;DHT22;11382;48.086;11.632;2022-08-04T06:55:12;43.00;48.90
22430;DHT22;11382;48.086;11.632;2022-08-04T06:57:40;43.60;47.40
22430;DHT22;11382;48.086;11.632;2022-08-04T07:00:11;44.00;45.60
22430;DHT22;11382;48.086;11.632;2022-08-04T07:02:44;44.20;45.60
22430;DHT22;11382;48.086;11.632;2022-08-04T07:05:12;44.20;45.10
22430;DHT22;11382;48.086;11.632;2022-08-04T07:07:41;43.90;43.50
22430;DHT22;11382;48.086;11.632;2022-08-04T07:10:24;44.40;43.00
22430;DHT22;11382;48.086;11.632;2022-08-04T07:12:55;45.10;42.90
22430;DHT22;11382;48.086;11.632;2022-08-04T07:15:24;45.20;41.60
22430;DHT22;11382;48.086;11.632;2022-08-04T07:17:55;45.90;41.40
22430;DHT22;11382;48.086;11.632;2022-08-04T07:20:26;46.00;40.90
22430;DHT22;11382;48.086;11.632;2022-08-04T07:23:02;45.90;41.20
22430;DHT22;11382;48.086;11.632;2022-08-04T07:25:31;45.70;40.90
22430;DHT22;11382;48.086;11.632;2022-08-04T07:28:21;45.60;40.00
22430;DHT22;11382;48.086;11.632;2022-08-04T07:30:49;45.60;40.00
22430;DHT22;11382;48.086;11.632;2022-08-04T07:33:19;46.90;39.60
22430;DHT22;11382;48.086;11.632;2022-08-04T07:35:50;47.40;38.90
22430;DHT22;11382;48.086;11.632;2022-08-04T07:38:37;47.80;37.60
22430;DHT22;11382;48.086;11.632;2022-08-04T07:41:19;46.90;36.90
22430;DHT22;11382;48.086;11.632;2022-08-04T07:44:04;46.40;38.20
22430;DHT22;11382;48.086;11.632;2022-08-04T07:46:33;47.50;37.60
22430;DHT22;11382;48.086;11.632;2022-08-04T07:49:03;47.40;37.80
22430;DHT22;11382;48.086;11.632;2022-08-04T07:51:32;47.10;37.90
22430;DHT22;11382;48.086;11.632;2022-08-04T07:54:01;46.60;37.70
22430;DHT22;11382;48.086;11.632;2022-08-04T07:56:31;47.30;37.30
22430;DHT22;11382;48.086;11.632;2022-08-04T07:59:00;48.30;36.10
22430;DHT22;11382;48.086;11.632;2022-08-04T08:01:29;49.10;35.70
22430;DHT22;11382;48.086;11.632;2022-08-04T08:03:58;49.10;35.20
22430;DHT22;11382;48.086;11.632;2022-08-04T08:06:29;48.50;35.80
22430;DHT22;11382;48.086;11.632;2022-08-04T08:09:06;47.50;36.30
22430;DHT22;11382;48.086;11.632;2022-08-04T08:11:39;47.70;36.30
22430;DHT22;11382;48.086;11.632;2022-08-04T08:14:28;47.20;36.20
22430;DHT22;11382;48.086;11.632;2022-08-04T08:16:58;47.60;36.20
22430;DHT22;11382;48.086;11.632;2022-08-04T08:19:27;46.30;36.60
22430;DHT22;11382;48.086;11.632;2022-08-04T08:21:57;46.30;37.90
22430;DHT22;11382;48.086;11.632;2022-08-04T08:24:27;47.20;36.10
22430;DHT22;11382;48.086;11.632;2022-08-04T08:26:56;48.10;35.20
22430;DHT22;11382;48.086;11.632;2022-08-04T08:29:25;49.30;34.80
22430;DHT22;11382;48.086;11.632;2022-08-04T08:31:53;49.20;33.90
22430;DHT22;11382;48.086;11.632;2022-08-04T08:34:28;49.20;34.10
22430;DHT22;11382;48.086;11.632;2022-08-04T08:37:03;48.70;34.50
22430;DHT22;11382;48.086;11.632;2022-08-04T08:39:40;48.30;34.90
22430;DHT22;11382;48.086;11.632;2022-08-04T08:45:28;49.60;33.20
22430;DHT22;11382;48.086;11.632;2022-08-04T08:48:34;49.60;33.10
22430;DHT22;11382;48.086;11.632;2022-08-04T08:54:35;50.10;33.30
22430;DHT22;11382;48.086;11.632;2022-08-04T08:57:23;50.20;32.60
22430;DHT22;11382;48.086;11.632;2022-08-04T09:00:08;49.10;32.70
22430;DHT22;11382;48.086;11.632;2022-08-04T12:07:50;42.20;33.70
22430;DHT22;11382;48.086;11.632;2022-08-04T12:10:32;40.10;36.60
22430;DHT22;11382;48.086;11.632;2022-08-04T12:13:18;39.10;37.50
22430;DHT22;11382;48.086;11.632;2022-08-04T12:15:55;38.70;39.90
22430;DHT22;11382;48.086;11.632;2022-08-04T12:18:29;37.90;39.00
22430;DHT22;11382;48.086;11.632;2022-08-04T12:21:06;37.40;41.10
22430;DHT22;11382;48.086;11.632;2022-08-04T12:23:39;37.00;40.90
22430;DHT22;11382;48.086;11.632;2022-08-04T12:26:13;36.30;40.40
22430;DHT22;11382;48.086;11.632;2022-08-04T12:28:44;36.60;42.90
22430;DHT22;11382;48.086;11.632;2022-08-04T12:31:37;36.50;41.00
22430;DHT22;11382;48.086;11.632;2022-08-04T12:34:11;36.40;41.20
22430;DHT22;11382;48.086;11.632;2022-08-04T12:36:46;36.00;42.80
22430;DHT22;11382;48.086;11.632;2022-08-04T12:39:19;36.10;43.60
22430;DHT22;11382;48.086;11.632;2022-08-04T12:42:00;35.70;43.20
22430;DHT22;11382;48.086;11.632;2022-08-04T12:44:32;35.50;43.40
22430;DHT22;11382;48.086;11.632;2022-08-04T12:47:06;35.30;43.60
22430;DHT22;11382;48.086;11.632;2022-08-04T12:49:56;35.30;44.80
22430;DHT22;11382;48.086;11.632;2022-08-04T12:52:30;35.30;44.20
22430;DHT22;11382;48.086;11.632;2022-08-04T12:55:23;35.30;44.90
22430;DHT22;11382;48.086;11.632;2022-08-04T12:57:52;35.20;45.10
22430;DHT22;11382;48.086;11.632;2022-08-04T13:00:26;35.10;43.10
22430;DHT22;11382;48.086;11.632;2022-08-04T13:03:03;34.80;43.40
22430;DHT22;11382;48.086;11.632;2022-08-04T13:05:39;35.00;45.50
22430;DHT22;11382;48.086;11.632;2022-08-04T13:08:09;34.60;43.60
22430;DHT22;11382;48.086;11.632;2022-08-04T13:10:43;34.80;43.90
22430;DHT22;11382;48.086;11.632;2022-08-04T13:13:15;35.00;44.30
22430;DHT22;11382;48.086;11.632;2022-08-04T13:15:55;35.00;44.90
22430;DHT22;11382;48.086;11.632;2022-08-04T13:18:25;34.80;44.80
22430;DHT22;11382;48.086;11.632;2022-08-04T13:21:09;34.80;44.80
22430;DHT22;11382;48.086;11.632;2022-08-04T13:24:03;34.80;45.90
22430;DHT22;11382;48.086;11.632;2022-08-04T13:26:49;34.20;43.90
22430;DHT22;11382;48.086;11.632;2022-08-04T13:29:23;34.40;46.70
22430;DHT22;11382;48.086;11.632;2022-08-04T13:32:15;34.40;44.90
22430;DHT22;11382;48.086;11.632;2022-08-04T13:34:45;34.80;45.70
22430;DHT22;11382;48.086;11.632;2022-08-04T13:37:20;34.60;45.90
22430;DHT22;11382;48.086;11.632;2022-08-04T13:39:50;34.80;46.40
22430;DHT22;11382;48.086;11.632;2022-08-04T13:42:24;34.80;45.10
22430;DHT22;11382;48.086;11.632;2022-08-04T13:44:55;34.60;45.80
22430;DHT22;11382;48.086;11.632;2022-08-04T13:47:27;34.70;46.80
22430;DHT22;11382;48.086;11.632;2022-08-04T13:50:07;34.80;45.50
22430;DHT22;11382;48.086;11.632;2022-08-04T13:52:39;34.90;46.60
22430;DHT22;11382;48.086;11.632;2022-08-04T13:55:08;34.90;45.40
22430;DHT22;11382;48.086;11.632;2022-08-04T13:57:44;34.60;45.90
22430;DHT22;11382;48.086;11.632;2022-08-04T14:00:13;34.70;47.80
22430;DHT22;11382;48.086;11.632;2022-08-04T14:02:59;34.60;44.60
22430;DHT22;11382;48.086;11.632;2022-08-04T14:05:29;34.00;44.00
22430;DHT22;11382;48.086;11.632;2022-08-04T14:08:20;34.20;45.80
22430;DHT22;11382;48.086;11.632;2022-08-04T14:10:54;34.40;48.00
22430;DHT22;11382;48.086;11.632;2022-08-04T14:13:31;34.70;47.70
22430;DHT22;11382;48.086;11.632;2022-08-04T14:16:15;34.80;46.20
22430;DHT22;11382;48.086;11.632;2022-08-04T14:18:44;34.50;46.60
22430;DHT22;11382;48.086;11.632;2022-08-04T14:21:14;34.40;47.80
22430;DHT22;11382;48.086;11.632;2022-08-04T14:23:45;34.40;46.70
22430;DHT22;11382;48.086;11.632;2022-08-04T14:26:24;34.40;46.20
22430;DHT22;11382;48.086;11.632;2022-08-04T14:29:11;34.20;45.90
22430;DHT22;11382;48.086;11.632;2022-08-04T14:32:01;34.00;45.50
22430;DHT22;11382;48.086;11.632;2022-08-04T14:34:39;33.80;45.60
22430;DHT22;11382;48.086;11.632;2022-08-04T14:37:13;33.60;46.60
22430;DHT22;11382;48.086;11.632;2022-08-04T14:39:46;33.90;46.60
22430;DHT22;11382;48.086;11.632;2022-08-04T14:42:42;34.10;46.40
22430;DHT22;11382;48.086;11.632;2022-08-04T14:45:34;33.80;45.60
22430;DHT22;11382;48.086;11.632;2022-08-04T14:48:05;33.50;46.20
22430;DHT22;11382;48.086;11.632;2022-08-04T14:50:36;33.80;46.90
22430;DHT22;11382;48.086;11.632;2022-08-04T14:53:06;34.00;47.00
22430;DHT22;11382;48.086;11.632;2022-08-04T14:55:35;34.00;46.60
22430;DHT22;11382;48.086;11.632;2022-08-04T14:58:04;33.80;46.70
22430;DHT22;11382;48.086;11.632;2022-08-04T15:00:57;34.10;47.50
22430;DHT22;11382;48.086;11.632;2022-08-04T15:03:26;34.30;47.70
22430;DHT22;11382;48.086;11.632;2022-08-04T15:05:56;34.30;48.20
22430;DHT22;11382;48.086;11.632;2022-08-04T15:08:31;34.20;47.20
22430;DHT22;11382;48.086;11.632;2022-08-04T15:10:59;34.20;49.10
22430;DHT22;11382;48.086;11.632;2022-08-04T15:13:30;34.30;47.80
22430;DHT22;11382;48.086;11.632;2022-08-04T15:16:00;34.20;47.10
22430;DHT22;11382;48.086;11.632;2022-08-04T15:18:37;34.20;46.30
22430;DHT22;11382;48.086;11.632;2022-08-04T15:21:06;33.90;47.00
22430;DHT22;11382;48.086;11.632;2022-08-04T15:23:35;33.90;47.40
22430;DHT22;11382;48.086;11.632;2022-08-04T15:26:08;33.70;45.80
22430;DHT22;11382;48.086;11.632;2022-08-04T15:28:40;33.80;46.70
22430;DHT22;11382;48.086;11.632;2022-08-04T15:31:10;33.60;46.40
22430;DHT22;11382;48.086;11.632;2022-08-04T15:34:00;33.70;46.80
22430;DHT22;11382;48.086;11.632;2022-08-04T15:36:35;33.70;46.10
22430;DHT22;11382;48.086;11.632;2022-08-04T15:39:11;33.60;46.70
22430;DHT22;11382;48.086;11.632;2022-08-04T15:41:52;33.50;46.60
22430;DHT22;11382;48.086;11.632;2022-08-04T15:47:26;33.90;48.10
22430;DHT22;11382;48.086;11.632;2022-08-04T15:50:05;33.90;47.80
22430;DHT22;11382;48.086;11.632;2022-08-04T15:52:59;33.90;47.80
22430;DHT22;11382;48.086;11.632;2022-08-04T15:55:39;33.80;47.70
22430;DHT22;11382;48.086;11.632;2022-08-04T15:58:10;33.70;48.10
22430;DHT22;11382;48.086;11.632;2022-08-04T16:01:12;33.80;47.60
22430;DHT22;11382;48.086;11.632;2022-08-04T16:03:45;33.70;46.60
22430;DHT22;11382;48.086;11.632;2022-08-04T16:06:42;33.60;47.90
22430;DHT22;11382;48.086;11.632;2022-08-04T16:09:24;33.80;47.40
22430;DHT22;11382;48.086;11.632;2022-08-04T16:15:43;33.80;47.10
22430;DHT22;11382;48.086;11.632;2022-08-04T16:18:35;33.80;47.60
22430;DHT22;11382;48.086;11.632;2022-08-04T16:21:16;33.80;47.70
22430;DHT22;11382;48.086;11.632;2022-08-04T16:24:08;33.70;47.10
22430;DHT22;11382;48.086;11.632;2022-08-04T16:26:51;33.60;47.20
22430;DHT22;11382;48.086;11.632;2022-08-04T16:29:27;33.60;46.20
22430;DHT22;11382;48.086;11.632;2022-08-04T16:32:15;33.50;46.50
22430;DHT22;11382;48.086;11.632;2022-08-04T16:34:46;33.50;47.50
22430;DHT22;11382;48.086;11.632;2022-08-04T16:37:28;33.10;47.30
22430;DHT22;11382;48.086;11.632;2022-08-04T16:43:11;33.20;46.80
22430;DHT22;11382;48.086;11.632;2022-08-04T16:45:44;33.20;46.90
22430;DHT22;11382;48.086;11.632;2022-08-04T16:48:14;33.10;47.00
22430;DHT22;11382;48.086;11.632;2022-08-04T16:50:51;33.10;46.40
22430;DHT22;11382;48.086;11.632;2022-08-04T16:53:21;33.10;46.60
22430;DHT22;11382;48.086;11.632;2022-08-04T16:56:11;33.00;47.50
22430;DHT22;11382;48.086;11.632;2022-08-04T16:58:40;33.00;47.60
22430;DHT22;11382;48.086;11.632;2022-08-04T17:01:20;33.00;48.40
22430;DHT22;11382;48.086;11.632;2022-08-04T17:04:00;32.90;48.40
22430;DHT22;11382;48.086;11.632;2022-08-04T17:06:33;32.90;49.50
22430;DHT22;11382;48.086;11.632;2022-08-04T17:09:05;32.90;49.40
22430;DHT22;11382;48.086;11.632;2022-08-04T17:11:36;32.80;48.00
22430;DHT22;11382;48.086;11.632;2022-08-04T17:14:04;32.80;48.40
22430;DHT22;11382;48.086;11.632;2022-08-04T17:16:34;32.80;49.00
22430;DHT22;11382;48.086;11.632;2022-08-04T17:19:03;32.80;48.40
22430;DHT22;11382;48.086;11.632;2022-08-04T17:21:33;32.60;49.40
22430;DHT22;11382;48.086;11.632;2022-08-04T17:24:04;32.60;49.20
22430;DHT22;11382;48.086;11.632;2022-08-04T17:26:45;32.50;49.20
22430;DHT22;11382;48.086;11.632;2022-08-04T17:29:21;32.40;50.00
22430;DHT22;11382;48.086;11.632;2022-08-04T17:32:14;32.40;48.40
22430;DHT22;11382;48.086;11.632;2022-08-04T17:34:46;32.20;48.50
22430;DHT22;11382;48.086;11.632;2022-08-04T17:37:15;32.20;49.80
22430;DHT22;11382;48.086;11.632;2022-08-04T17:40:10;32.10;48.20
22430;DHT22;11382;48.086;11.632;2022-08-04T17:42:39;32.10;49.30
22430;DHT22;11382;48.086;11.632;2022-08-04T17:45:12;32.00;50.30
22430;DHT22;11382;48.086;11.632;2022-08-04T17:48:06;31.90;49.60
22430;DHT22;11382;48.086;11.632;2022-08-04T17:50:34;31.80;50.10
22430;DHT22;11382;48.086;11.632;2022-08-04T17:53:09;31.80;48.90
22430;DHT22;11382;48.086;11.632;2022-08-04T17:55:44;31.70;48.90
22430;DHT22;11382;48.086;11.632;2022-08-04T17:58:17;31.80;49.70
22430;DHT22;11382;48.086;11.632;2022-08-04T18:00:56;31.60;49.40
22430;DHT22;11382;48.086;11.632;2022-08-04T18:03:44;31.50;50.50
22430;DHT22;11382;48.086;11.632;2022-08-04T18:06:20;31.60;50.50
22430;DHT22;11382;48.086;11.632;2022-08-04T18:09:09;31.50;50.40
22430;DHT22;11382;48.086;11.632;2022-08-04T18:12:00;31.40;51.40
22430;DHT22;11382;48.086;11.632;2022-08-04T18:14:37;31.20;52.50
22430;DHT22;11382;48.086;11.632;2022-08-04T18:17:06;31.00;52.00
22430;DHT22;11382;48.086;11.632;2022-08-04T18:19:54;30.80;53.60
22430;DHT22;11382;48.086;11.632;2022-08-04T18:22:22;30.60;53.80
22430;DHT22;11382;48.086;11.632;2022-08-04T18:24:54;30.50;54.00
22430;DHT22;11382;48.086;11.632;2022-08-04T18:27:26;30.50;54.30
22430;DHT22;11382;48.086;11.632;2022-08-04T18:29:56;30.40;56.10
22430;DHT22;11382;48.086;11.632;2022-08-04T18:32:44;30.20;55.60
22430;DHT22;11382;48.086;11.632;2022-08-04T18:35:32;30.00;56.10
22430;DHT22;11382;48.086;11.632;2022-08-04T18:38:21;29.80;56.70
22430;DHT22;11382;48.086;11.632;2022-08-04T18:40:50;29.70;56.90
22430;DHT22;11382;48.086;11.632;2022-08-04T18:43:22;29.60;57.10
22430;DHT22;11382;48.086;11.632;2022-08-04T18:46:10;29.70;57.60
22430;DHT22;11382;48.086;11.632;2022-08-04T18:48:42;29.60;59.10
22430;DHT22;11382;48.086;11.632;2022-08-04T18:51:18;29.50;59.00
22430;DHT22;11382;48.086;11.632;2022-08-04T18:53:51;29.30;58.60
22430;DHT22;11382;48.086;11.632;2022-08-04T18:56:24;29.10;60.60
22430;DHT22;11382;48.086;11.632;2022-08-04T18:59:13;29.00;60.30
22430;DHT22;11382;48.086;11.632;2022-08-04T19:01:45;28.90;59.60
22430;DHT22;11382;48.086;11.632;2022-08-04T19:04:33;28.80;59.60
22430;DHT22;11382;48.086;11.632;2022-08-04T19:07:03;28.70;61.40
22430;DHT22;11382;48.086;11.632;2022-08-04T19:09:52;28.50;64.70
22430;DHT22;11382;48.086;11.632;2022-08-04T19:12:24;28.30;64.80
22430;DHT22;11382;48.086;11.632;2022-08-04T19:14:56;28.10;65.10
22430;DHT22;11382;48.086;11.632;2022-08-04T19:17:36;28.10;64.40
22430;DHT22;11382;48.086;11.632;2022-08-04T19:20:23;27.90;65.70
22430;DHT22;11382;48.086;11.632;2022-08-04T19:22:53;27.80;67.80
22430;DHT22;11382;48.086;11.632;2022-08-04T19:25:41;27.60;67.90
22430;DHT22;11382;48.086;11.632;2022-08-04T19:28:31;27.30;69.80
22430;DHT22;11382;48.086;11.632;2022-08-04T19:31:03;27.10;70.40
22430;DHT22;11382;48.086;11.632;2022-08-04T19:33:32;26.90;70.40
22430;DHT22;11382;48.086;11.632;2022-08-04T19:36:22;26.80;70.20
22430;DHT22;11382;48.086;11.632;2022-08-04T19:38:54;26.70;73.00
22430;DHT22;11382;48.086;11.632;2022-08-04T19:41:23;26.40;73.20
22430;DHT22;11382;48.086;11.632;2022-08-04T19:43:52;26.30;73.50
22430;DHT22;11382;48.086;11.632;2022-08-04T19:46:22;26.20;73.70
22430;DHT22;11382;48.086;11.632;2022-08-04T19:48:51;26.10;73.50
22430;DHT22;11382;48.086;11.632;2022-08-04T19:51:26;26.10;74.50
22430;DHT22;11382;48.086;11.632;2022-08-04T19:53:55;26.00;76.10
22430;DHT22;11382;48.086;11.632;2022-08-04T19:56:36;25.90;77.50
22430;DHT22;11382;48.086;11.632;2022-08-04T19:59:07;25.70;77.80